createdAt,value
2017-03-11T00:00:47.377Z,0
2017-03-11T00:01:47.448Z,0
2017-03-11T00:02:47.458Z,0
2017-03-11T00:03:47.507Z,0
2017-03-11T00:04:47.493Z,0
2017-03-11T00:05:47.502Z,0
2017-03-11T00:06:47.904Z,0
2017-03-11T00:07:47.761Z,0
2017-03-11T00:08:47.602Z,0
2017-03-11T00:09:47.606Z,0
2017-03-11T00:10:47.663Z,0
2017-03-11T00:11:47.664Z,0
2017-03-11T00:12:47.932Z,0
2017-03-11T00:13:47.735Z,0
2017-03-11T00:14:47.772Z,0
2017-03-11T00:15:47.807Z,0
2017-03-11T00:16:47.836Z,0
2017-03-11T00:17:47.986Z,0
2017-03-11T00:18:47.940Z,0
2017-03-11T00:19:47.921Z,0
2017-03-11T00:20:47.927Z,0
2017-03-11T00:21:47.948Z,0
2017-03-11T00:22:47.990Z,0
2017-03-11T00:23:48.032Z,0
2017-03-11T00:24:48.070Z,0
2017-03-11T00:25:48.074Z,0
2017-03-11T00:26:48.148Z,0
2017-03-11T00:27:48.132Z,0
2017-03-11T00:28:48.147Z,0
2017-03-11T00:29:48.116Z,0
2017-03-11T00:30:48.182Z,0
2017-03-11T00:31:48.269Z,0
2017-03-11T00:32:48.243Z,0
2017-03-11T00:33:48.244Z,0
2017-03-11T00:34:48.303Z,0
2017-03-11T00:35:48.353Z,0
2017-03-11T00:36:48.363Z,0
2017-03-11T00:37:48.406Z,0
2017-03-11T00:38:48.456Z,0
2017-03-11T00:39:48.467Z,0
2017-03-11T00:40:48.458Z,0
2017-03-11T00:41:48.504Z,0
2017-03-11T00:42:48.494Z,0
2017-03-11T00:43:48.585Z,0
2017-03-11T00:44:48.593Z,0
2017-03-11T00:45:48.626Z,0
2017-03-11T00:46:48.631Z,0
2017-03-11T00:47:48.679Z,0
2017-03-11T00:48:48.720Z,0
2017-03-11T00:49:48.665Z,0
2017-03-11T00:50:48.721Z,0
2017-03-11T00:51:48.841Z,0
2017-03-11T00:52:48.798Z,0
2017-03-11T00:53:48.792Z,0
2017-03-11T00:54:48.877Z,0
2017-03-11T00:55:49.168Z,0
2017-03-11T00:56:48.910Z,0
2017-03-11T00:57:48.974Z,0
2017-03-11T00:58:48.945Z,0
2017-03-11T00:59:48.974Z,0
2017-03-11T01:00:49.064Z,0
2017-03-11T01:01:49.015Z,0
2017-03-11T01:02:49.042Z,0
2017-03-11T01:03:49.154Z,0
2017-03-11T01:04:49.112Z,0
2017-03-11T01:05:49.153Z,0
2017-03-11T01:06:49.213Z,0
2017-03-11T01:07:49.250Z,0
2017-03-11T01:08:49.256Z,0
2017-03-11T01:09:49.279Z,0
2017-03-11T01:10:49.283Z,0
2017-03-11T01:11:49.691Z,0
2017-03-11T01:12:49.384Z,0
2017-03-11T01:13:49.401Z,0
2017-03-11T01:14:49.362Z,0
2017-03-11T01:15:49.457Z,0
2017-03-11T01:16:49.473Z,0
2017-03-11T01:17:49.441Z,0
2017-03-11T01:18:49.557Z,0
2017-03-11T01:19:49.482Z,0
2017-03-11T01:20:49.567Z,0
2017-03-11T01:21:49.540Z,0
2017-03-11T01:22:49.680Z,0
2017-03-11T01:23:49.631Z,0
2017-03-11T01:24:49.664Z,0
2017-03-11T01:25:49.671Z,0
2017-03-11T01:26:49.744Z,0
2017-03-11T01:27:49.728Z,0
2017-03-11T01:28:49.752Z,0
2017-03-11T01:29:49.736Z,0
2017-03-11T01:30:49.862Z,0
2017-03-11T01:31:49.875Z,0
2017-03-11T01:32:49.823Z,0
2017-03-11T01:33:49.889Z,0
2017-03-11T01:34:49.884Z,0
2017-03-11T01:35:49.900Z,0
2017-03-11T01:36:49.982Z,0
2017-03-11T01:37:49.959Z,0
2017-03-11T01:38:49.993Z,0
2017-03-11T01:39:50.049Z,0
2017-03-11T01:40:50.082Z,0
2017-03-11T01:41:50.088Z,0
2017-03-11T01:42:50.121Z,0
2017-03-11T01:43:50.161Z,0
2017-03-11T01:44:50.166Z,0
2017-03-11T01:45:50.196Z,0
2017-03-11T01:46:50.190Z,0
2017-03-11T01:47:50.274Z,0
2017-03-11T01:48:50.357Z,0
2017-03-11T01:49:50.299Z,0
2017-03-11T01:50:50.396Z,0
2017-03-11T01:51:50.372Z,0
2017-03-11T01:52:50.362Z,0
2017-03-11T01:53:50.407Z,0
2017-03-11T01:54:50.470Z,0
2017-03-11T01:55:50.571Z,0
2017-03-11T01:56:50.576Z,0
2017-03-11T01:57:50.521Z,0
2017-03-11T01:58:50.569Z,0
2017-03-11T01:59:50.548Z,0
2017-03-11T02:00:50.898Z,0
2017-03-11T02:01:50.608Z,0
2017-03-11T02:02:50.739Z,0
2017-03-11T02:03:50.673Z,0
2017-03-11T02:04:50.699Z,0
2017-03-11T02:05:50.906Z,0
2017-03-11T02:06:50.710Z,0
2017-03-11T02:07:50.809Z,0
2017-03-11T02:08:50.816Z,0
2017-03-11T02:09:50.875Z,0
2017-03-11T02:10:51.275Z,0
2017-03-11T02:11:51.212Z,0
2017-03-11T02:12:50.956Z,0
2017-03-11T02:13:50.945Z,0
2017-03-11T02:14:50.976Z,0
2017-03-11T02:15:50.970Z,0
2017-03-11T02:16:50.998Z,0
2017-03-11T02:17:51.347Z,0
2017-03-11T02:18:51.060Z,0
2017-03-11T02:19:51.031Z,0
2017-03-11T02:20:51.127Z,0
2017-03-11T02:21:51.152Z,0
2017-03-11T02:22:51.125Z,0
2017-03-11T02:23:51.238Z,0
2017-03-11T02:24:51.274Z,0
2017-03-11T02:25:51.199Z,0
2017-03-11T02:26:51.272Z,0
2017-03-11T02:27:51.338Z,0
2017-03-11T02:28:51.371Z,0
2017-03-11T02:29:51.380Z,0
2017-03-11T02:30:51.385Z,0
2017-03-11T02:31:51.482Z,0
2017-03-11T02:32:51.474Z,0
2017-03-11T02:33:51.421Z,0
2017-03-11T02:34:51.592Z,0
2017-03-11T02:35:51.586Z,0
2017-03-11T02:36:51.652Z,0
2017-03-11T02:37:51.589Z,0
2017-03-11T02:38:51.628Z,0
2017-03-11T02:39:51.665Z,0
2017-03-11T02:40:51.621Z,0
2017-03-11T02:41:51.846Z,0
2017-03-11T02:42:51.978Z,0
2017-03-11T02:43:51.683Z,0
2017-03-11T02:44:51.705Z,0
2017-03-11T02:45:51.783Z,0
2017-03-11T02:46:51.902Z,0
2017-03-11T02:47:51.826Z,0
2017-03-11T02:48:51.832Z,0
2017-03-11T02:49:51.927Z,0
2017-03-11T02:50:51.962Z,0
2017-03-11T02:51:52.074Z,0
2017-03-11T02:52:51.950Z,0
2017-03-11T02:53:52.261Z,0
2017-03-11T02:54:52.062Z,0
2017-03-11T02:55:51.980Z,0
2017-03-11T02:56:52.077Z,0
2017-03-11T02:57:52.149Z,0
2017-03-11T02:58:52.096Z,0
2017-03-11T02:59:52.192Z,0
2017-03-11T03:00:52.203Z,0
2017-03-11T03:01:52.203Z,0
2017-03-11T03:02:52.216Z,0
2017-03-11T03:03:52.216Z,0
2017-03-11T03:04:52.276Z,0
2017-03-11T03:05:52.409Z,0
2017-03-11T03:06:52.441Z,0
2017-03-11T03:07:52.396Z,0
2017-03-11T03:08:52.362Z,0
2017-03-11T03:09:52.384Z,0
2017-03-11T03:10:52.475Z,0
2017-03-11T03:11:52.786Z,0
2017-03-11T03:12:52.495Z,0
2017-03-11T03:13:52.579Z,0
2017-03-11T03:14:52.555Z,0
2017-03-11T03:15:52.604Z,0
2017-03-11T03:16:52.595Z,0
2017-03-11T03:17:52.679Z,0
2017-03-11T03:18:52.673Z,0
2017-03-11T03:19:52.681Z,0
2017-03-11T03:20:52.722Z,0
2017-03-11T03:21:52.785Z,0
2017-03-11T03:22:52.867Z,0
2017-03-11T03:23:52.772Z,0
2017-03-11T03:24:52.807Z,0
2017-03-11T03:25:52.776Z,0
2017-03-11T03:26:52.792Z,0
2017-03-11T03:27:52.993Z,0
2017-03-11T03:28:52.976Z,0
2017-03-11T03:29:52.939Z,0
2017-03-11T03:30:53.117Z,0
2017-03-11T03:31:53.021Z,0
2017-03-11T03:32:53.177Z,0
2017-03-11T03:33:53.072Z,0
2017-03-11T03:34:53.040Z,0
2017-03-11T03:35:53.103Z,0
2017-03-11T03:36:53.097Z,0
2017-03-11T03:37:53.231Z,0
2017-03-11T03:38:53.192Z,0
2017-03-11T03:39:53.190Z,0
2017-03-11T03:40:53.208Z,0
2017-03-11T03:41:53.199Z,0
2017-03-11T03:42:53.230Z,0
2017-03-11T03:43:53.277Z,0
2017-03-11T03:44:53.318Z,0
2017-03-11T03:45:53.324Z,0
2017-03-11T03:46:53.434Z,0
2017-03-11T03:47:53.432Z,0
2017-03-11T03:48:53.462Z,0
2017-03-11T03:49:53.437Z,0
2017-03-11T03:50:53.476Z,0
2017-03-11T03:51:53.565Z,0
2017-03-11T03:52:53.574Z,0
2017-03-11T03:53:53.527Z,0
2017-03-11T03:54:53.588Z,0
2017-03-11T03:55:53.969Z,0
2017-03-11T03:56:53.623Z,0
2017-03-11T03:57:53.679Z,0
2017-03-11T03:58:53.674Z,0
2017-03-11T03:59:53.674Z,0
2017-03-11T04:00:53.755Z,0
2017-03-11T04:01:53.759Z,0
2017-03-11T04:02:53.888Z,0
2017-03-11T04:03:54.036Z,0
2017-03-11T04:04:53.877Z,0
2017-03-11T04:05:53.869Z,0
2017-03-11T04:06:53.908Z,0
2017-03-11T04:07:53.911Z,0
2017-03-11T04:08:54.399Z,0
2017-03-11T04:09:53.975Z,0
2017-03-11T04:10:54.024Z,0
2017-03-11T04:11:54.033Z,0
2017-03-11T04:12:54.081Z,0
2017-03-11T04:13:54.044Z,0
2017-03-11T04:14:54.144Z,0
2017-03-11T04:15:54.124Z,0
2017-03-11T04:16:54.179Z,0
2017-03-11T04:17:54.150Z,0
2017-03-11T04:18:54.297Z,0
2017-03-11T04:19:54.255Z,0
2017-03-11T04:20:54.260Z,0
2017-03-11T04:21:54.285Z,0
2017-03-11T04:22:54.315Z,0
2017-03-11T04:23:54.319Z,0
2017-03-11T04:24:54.389Z,0
2017-03-11T04:25:54.339Z,0
2017-03-11T04:26:54.394Z,0
2017-03-11T04:27:54.416Z,0
2017-03-11T04:28:54.455Z,0
2017-03-11T04:29:54.475Z,0
2017-03-11T04:30:54.568Z,0
2017-03-11T04:31:54.564Z,0
2017-03-11T04:32:54.569Z,0
2017-03-11T04:33:54.589Z,0
2017-03-11T04:34:54.641Z,0
2017-03-11T04:35:54.668Z,0
2017-03-11T04:36:54.701Z,0
2017-03-11T04:37:54.777Z,0
2017-03-11T04:38:54.802Z,0
2017-03-11T04:39:54.802Z,0
2017-03-11T04:40:54.786Z,0
2017-03-11T04:41:54.829Z,0
2017-03-11T04:42:54.819Z,0
2017-03-11T04:43:54.840Z,0
2017-03-11T04:44:54.886Z,0
2017-03-11T04:45:54.890Z,0
2017-03-11T04:46:54.900Z,0
2017-03-11T04:47:54.985Z,0
2017-03-11T04:48:55.006Z,0
2017-03-11T04:49:55.072Z,0
2017-03-11T04:50:55.054Z,0
2017-03-11T04:51:55.019Z,0
2017-03-11T04:52:55.110Z,0
2017-03-11T04:53:55.102Z,0
2017-03-11T04:54:55.149Z,0
2017-03-11T04:55:55.148Z,0
2017-03-11T04:56:55.163Z,0
2017-03-11T04:57:55.187Z,0
2017-03-11T04:58:55.231Z,0
2017-03-11T04:59:55.257Z,0
2017-03-11T05:00:55.166Z,0
2017-03-11T05:01:55.177Z,0
2017-03-11T05:02:55.234Z,0
2017-03-11T05:03:55.221Z,0
2017-03-11T05:04:55.271Z,0
2017-03-11T05:05:55.548Z,0
2017-03-11T05:06:55.315Z,0
2017-03-11T05:07:55.362Z,0
2017-03-11T05:08:55.368Z,0
2017-03-11T05:09:55.403Z,0
2017-03-11T05:10:55.433Z,0
2017-03-11T05:11:55.447Z,0
2017-03-11T05:12:55.464Z,0
2017-03-11T05:13:55.497Z,0
2017-03-11T05:14:55.556Z,0
2017-03-11T05:15:55.556Z,0
2017-03-11T05:16:55.606Z,0
2017-03-11T05:17:55.615Z,0
2017-03-11T05:18:55.630Z,0
2017-03-11T05:19:55.669Z,0
2017-03-11T05:20:55.682Z,0
2017-03-11T05:21:55.688Z,0
2017-03-11T05:22:55.731Z,0
2017-03-11T05:23:55.771Z,0
2017-03-11T05:24:55.773Z,5
2017-03-11T05:25:55.805Z,5
2017-03-11T05:26:55.829Z,5
2017-03-11T05:27:55.872Z,5
2017-03-11T05:28:55.875Z,5
2017-03-11T05:29:55.943Z,5
2017-03-11T05:30:55.942Z,5
2017-03-11T05:31:55.981Z,5
2017-03-11T05:32:56.000Z,5
2017-03-11T05:33:56.026Z,5
2017-03-11T05:34:56.042Z,5
2017-03-11T05:35:56.168Z,10
2017-03-11T05:36:56.099Z,10
2017-03-11T05:37:56.141Z,10
2017-03-11T05:38:56.151Z,10
2017-03-11T05:39:56.171Z,10
2017-03-11T05:40:56.211Z,10
2017-03-11T05:41:56.205Z,10
2017-03-11T05:42:56.235Z,15
2017-03-11T05:43:56.268Z,15
2017-03-11T05:44:56.298Z,15
2017-03-11T05:45:56.324Z,15
2017-03-11T05:46:56.337Z,15
2017-03-11T05:47:56.361Z,15
2017-03-11T05:48:56.425Z,15
2017-03-11T05:49:56.417Z,20
2017-03-11T05:50:56.456Z,20
2017-03-11T05:51:56.479Z,20
2017-03-11T05:52:56.520Z,20
2017-03-11T05:53:56.535Z,25
2017-03-11T05:54:56.565Z,25
2017-03-11T05:55:56.582Z,25
2017-03-11T05:56:56.652Z,25
2017-03-11T05:57:56.623Z,30
2017-03-11T05:58:56.768Z,30
2017-03-11T05:59:56.681Z,30
2017-03-11T06:00:56.782Z,30
2017-03-11T06:01:56.768Z,30
2017-03-11T06:02:56.797Z,30
2017-03-11T06:03:56.922Z,30
2017-03-11T06:04:56.810Z,35
2017-03-11T06:05:56.848Z,35
2017-03-11T06:06:56.897Z,35
2017-03-11T06:07:56.886Z,35
2017-03-11T06:08:57.270Z,40
2017-03-11T06:09:56.935Z,40
2017-03-11T06:10:56.972Z,40
2017-03-11T06:11:57.038Z,45
2017-03-11T06:12:57.034Z,45
2017-03-11T06:13:57.136Z,50
2017-03-11T06:14:57.188Z,55
2017-03-11T06:15:57.122Z,60
2017-03-11T06:16:57.136Z,60
2017-03-11T06:17:57.153Z,65
2017-03-11T06:18:57.187Z,65
2017-03-11T06:19:57.239Z,65
2017-03-11T06:20:57.255Z,70
2017-03-11T06:21:57.271Z,70
2017-03-11T06:22:57.295Z,75
2017-03-11T06:23:57.335Z,75
2017-03-11T06:24:57.356Z,75
2017-03-11T06:25:57.389Z,75
2017-03-11T06:26:57.422Z,75
2017-03-11T06:27:57.410Z,75
2017-03-11T06:28:57.634Z,80
2017-03-11T06:29:57.453Z,80
2017-03-11T06:30:57.510Z,80
2017-03-11T06:31:57.547Z,80
2017-03-11T06:32:57.550Z,85
2017-03-11T06:33:57.583Z,85
2017-03-11T06:34:57.822Z,85
2017-03-11T06:35:57.635Z,85
2017-03-11T06:36:57.663Z,90
2017-03-11T06:37:57.694Z,95
2017-03-11T06:38:57.711Z,100
2017-03-11T06:39:57.794Z,105
2017-03-11T06:40:57.771Z,110
2017-03-11T06:41:57.778Z,115
2017-03-11T06:42:57.847Z,120
2017-03-11T06:43:57.835Z,120
2017-03-11T06:44:58.455Z,125
2017-03-11T06:45:58.481Z,130
2017-03-11T06:46:58.525Z,130
2017-03-11T06:47:58.532Z,135
2017-03-11T06:48:58.573Z,140
2017-03-11T06:49:58.587Z,145
2017-03-11T06:50:58.626Z,150
2017-03-11T06:51:58.632Z,150
2017-03-11T06:52:58.656Z,150
2017-03-11T06:53:58.694Z,155
2017-03-11T06:54:58.728Z,155
2017-03-11T06:55:58.762Z,155
2017-03-11T06:56:58.775Z,150
2017-03-11T06:57:58.790Z,150
2017-03-11T06:58:58.826Z,150
2017-03-11T06:59:58.845Z,150
2017-03-11T07:00:58.897Z,150
2017-03-11T07:01:58.903Z,150
2017-03-11T07:02:58.922Z,150
2017-03-11T07:03:58.978Z,150
2017-03-11T07:04:59.004Z,155
2017-03-11T07:05:59.066Z,160
2017-03-11T07:06:59.058Z,155
2017-03-11T07:07:59.055Z,155
2017-03-11T07:08:59.105Z,155
2017-03-11T07:09:59.129Z,155
2017-03-11T07:10:59.154Z,160
2017-03-11T07:11:59.171Z,165
2017-03-11T07:12:59.202Z,165
2017-03-11T07:13:59.227Z,165
2017-03-11T07:14:59.255Z,160
2017-03-11T07:15:59.264Z,165
2017-03-11T07:16:59.293Z,175
2017-03-11T07:17:59.324Z,185
2017-03-11T07:18:59.344Z,185
2017-03-11T07:19:59.403Z,190
2017-03-11T07:20:59.426Z,210
2017-03-11T07:21:59.437Z,220
2017-03-11T07:22:59.481Z,230
2017-03-11T07:23:59.502Z,235
2017-03-11T07:24:59.547Z,240
2017-03-11T07:25:59.652Z,245
2017-03-11T07:26:59.625Z,235
2017-03-11T07:27:59.645Z,235
2017-03-11T07:28:59.632Z,230
2017-03-11T07:29:59.655Z,240
2017-03-11T07:30:59.813Z,250
2017-03-11T07:31:59.723Z,260
2017-03-11T07:32:59.752Z,260
2017-03-11T07:33:59.772Z,260
2017-03-11T07:34:59.813Z,260
2017-03-11T07:35:59.997Z,255
2017-03-11T07:36:59.875Z,255
2017-03-11T07:37:59.934Z,260
2017-03-11T07:38:59.924Z,260
2017-03-11T07:39:59.999Z,260
2017-03-11T07:41:00.112Z,255
2017-03-11T07:42:00.030Z,250
2017-03-11T07:43:00.044Z,240
2017-03-11T07:44:00.064Z,240
2017-03-11T07:45:00.091Z,235
2017-03-11T07:46:00.275Z,245
2017-03-11T07:47:00.135Z,250
2017-03-11T07:48:00.197Z,250
2017-03-11T07:49:00.172Z,245
2017-03-11T07:50:00.251Z,240
2017-03-11T07:51:00.300Z,240
2017-03-11T07:52:00.315Z,245
2017-03-11T07:53:00.313Z,245
2017-03-11T07:54:00.376Z,245
2017-03-11T07:55:00.375Z,245
2017-03-11T07:56:00.397Z,250
2017-03-11T07:57:00.436Z,255
2017-03-11T07:58:00.674Z,255
2017-03-11T07:59:00.471Z,255
2017-03-11T08:00:00.529Z,250
2017-03-11T08:01:00.532Z,250
2017-03-11T08:02:00.579Z,250
2017-03-11T08:03:00.582Z,250
2017-03-11T08:04:00.643Z,255
2017-03-11T08:05:00.684Z,255
2017-03-11T08:06:00.678Z,260
2017-03-11T08:07:00.698Z,255
2017-03-11T08:08:00.739Z,255
2017-03-11T08:09:00.792Z,255
2017-03-11T08:10:00.790Z,255
2017-03-11T08:11:00.796Z,265
2017-03-11T08:12:00.844Z,270
2017-03-11T08:13:00.925Z,275
2017-03-11T08:14:00.908Z,280
2017-03-11T08:15:00.966Z,285
2017-03-11T08:16:01.081Z,280
2017-03-11T08:17:00.968Z,275
2017-03-11T08:18:01.021Z,245
2017-03-11T08:19:01.037Z,240
2017-03-11T08:20:01.088Z,240
2017-03-11T08:21:01.207Z,245
2017-03-11T08:22:01.138Z,265
2017-03-11T08:23:01.166Z,285
2017-03-11T08:24:01.185Z,295
2017-03-11T08:25:01.221Z,310
2017-03-11T08:26:01.607Z,310
2017-03-11T08:27:01.287Z,310
2017-03-11T08:28:01.309Z,305
2017-03-11T08:29:01.349Z,310
2017-03-11T08:30:01.355Z,325
2017-03-11T08:31:01.535Z,340
2017-03-11T08:32:01.436Z,350
2017-03-11T08:33:01.435Z,345
2017-03-11T08:34:01.479Z,340
2017-03-11T08:35:01.492Z,325
2017-03-11T08:36:01.888Z,315
2017-03-11T08:37:01.558Z,290
2017-03-11T08:38:01.586Z,290
2017-03-11T08:39:01.607Z,280
2017-03-11T08:40:01.643Z,260
2017-03-11T08:41:01.685Z,245
2017-03-11T08:42:01.692Z,245
2017-03-11T08:43:01.749Z,235
2017-03-11T08:44:01.763Z,245
2017-03-11T08:45:01.811Z,255
2017-03-11T08:46:01.845Z,250
2017-03-11T08:47:01.869Z,250
2017-03-11T08:48:01.885Z,245
2017-03-11T08:49:01.873Z,245
2017-03-11T08:50:01.920Z,235
2017-03-11T08:51:01.981Z,230
2017-03-11T08:52:01.965Z,225
2017-03-11T08:53:02.020Z,225
2017-03-11T08:54:02.072Z,220
2017-03-11T08:55:02.092Z,220
2017-03-11T08:56:02.119Z,210
2017-03-11T08:57:02.150Z,205
2017-03-11T08:58:02.173Z,205
2017-03-11T08:59:02.206Z,205
2017-03-11T09:00:02.272Z,205
2017-03-11T09:01:02.271Z,210
2017-03-11T09:02:02.294Z,215
2017-03-11T09:03:02.310Z,220
2017-03-11T09:04:02.421Z,225
2017-03-11T09:05:02.416Z,230
2017-03-11T09:06:02.412Z,230
2017-03-11T09:07:02.608Z,240
2017-03-11T09:08:02.662Z,260
2017-03-11T09:09:02.487Z,270
2017-03-11T09:10:02.534Z,280
2017-03-11T09:11:02.538Z,290
2017-03-11T09:12:02.883Z,310
2017-03-11T09:13:02.593Z,320
2017-03-11T09:14:02.628Z,335
2017-03-11T09:15:02.679Z,350
2017-03-11T09:16:02.972Z,370
2017-03-11T09:17:02.762Z,390
2017-03-11T09:18:02.778Z,420
2017-03-11T09:19:02.792Z,455
2017-03-11T09:20:02.867Z,485
2017-03-11T09:21:02.832Z,525
2017-03-11T09:22:02.864Z,540
2017-03-11T09:23:02.917Z,555
2017-03-11T09:24:02.954Z,570
2017-03-11T09:25:02.979Z,575
2017-03-11T09:26:02.953Z,590
2017-03-11T09:27:03.022Z,595
2017-03-11T09:28:03.048Z,605
2017-03-11T09:29:03.081Z,575
2017-03-11T09:30:03.142Z,565
2017-03-11T09:31:03.143Z,555
2017-03-11T09:32:03.203Z,555
2017-03-11T09:33:03.216Z,550
2017-03-11T09:34:03.264Z,555
2017-03-11T09:35:03.277Z,560
2017-03-11T09:36:03.276Z,565
2017-03-11T09:37:03.338Z,575
2017-03-11T09:38:03.337Z,565
2017-03-11T09:39:03.361Z,565
2017-03-11T09:40:03.378Z,560
2017-03-11T09:41:03.430Z,565
2017-03-11T09:42:03.428Z,565
2017-03-11T09:43:03.491Z,560
2017-03-11T09:44:03.519Z,560
2017-03-11T09:45:03.564Z,575
2017-03-11T09:46:03.568Z,555
2017-03-11T09:47:03.611Z,565
2017-03-11T09:48:03.643Z,560
2017-03-11T09:49:03.683Z,565
2017-03-11T09:50:03.852Z,555
2017-03-11T09:51:03.723Z,540
2017-03-11T09:52:03.773Z,540
2017-03-11T09:53:03.813Z,540
2017-03-11T09:54:03.919Z,535
2017-03-11T09:55:03.883Z,530
2017-03-11T09:56:03.950Z,530
2017-03-11T09:57:03.950Z,525
2017-03-11T09:58:03.970Z,510
2017-03-11T09:59:04.020Z,500
2017-03-11T10:00:04.030Z,490
2017-03-11T10:01:04.054Z,480
2017-03-11T10:02:04.086Z,475
2017-03-11T10:03:04.152Z,465
2017-03-11T10:04:04.151Z,460
2017-03-11T10:05:04.228Z,460
2017-03-11T10:06:04.419Z,460
2017-03-11T10:07:04.255Z,460
2017-03-11T10:08:04.293Z,460
2017-03-11T10:09:04.315Z,455
2017-03-11T10:10:04.343Z,455
2017-03-11T10:11:04.367Z,450
2017-03-11T10:12:04.409Z,440
2017-03-11T10:13:04.435Z,445
2017-03-11T10:14:04.453Z,440
2017-03-11T10:15:04.572Z,440
2017-03-11T10:16:04.535Z,440
2017-03-11T10:17:04.585Z,455
2017-03-11T10:18:04.593Z,460
2017-03-11T10:19:04.629Z,455
2017-03-11T10:20:04.660Z,450
2017-03-11T10:21:04.684Z,440
2017-03-11T10:22:04.694Z,425
2017-03-11T10:23:04.762Z,405
2017-03-11T10:24:04.780Z,395
2017-03-11T10:25:04.851Z,380
2017-03-11T10:26:04.850Z,370
2017-03-11T10:27:04.852Z,360
2017-03-11T10:28:04.923Z,355
2017-03-11T10:29:04.908Z,355
2017-03-11T10:30:04.961Z,355
2017-03-11T10:31:04.980Z,350
2017-03-11T10:32:05.022Z,340
2017-03-11T10:33:05.060Z,330
2017-03-11T10:34:05.067Z,335
2017-03-11T10:35:05.116Z,340
2017-03-11T10:36:05.151Z,335
2017-03-11T10:37:05.204Z,335
2017-03-11T10:38:05.224Z,340
2017-03-11T10:39:05.225Z,350
2017-03-11T10:40:05.265Z,355
2017-03-11T10:41:05.322Z,360
2017-03-11T10:42:05.369Z,370
2017-03-11T10:43:05.365Z,375
2017-03-11T10:44:05.374Z,375
2017-03-11T10:45:05.424Z,365
2017-03-11T10:46:05.456Z,370
2017-03-11T10:47:05.472Z,375
2017-03-11T10:48:05.514Z,395
2017-03-11T10:49:05.556Z,395
2017-03-11T10:50:05.612Z,415
2017-03-11T10:51:05.631Z,425
2017-03-11T10:52:05.681Z,430
2017-03-11T10:53:05.659Z,435
2017-03-11T10:54:05.694Z,440
2017-03-11T10:55:05.833Z,440
2017-03-11T10:56:05.779Z,450
2017-03-11T10:57:05.795Z,445
2017-03-11T10:58:05.832Z,445
2017-03-11T10:59:05.888Z,445
2017-03-11T11:00:05.911Z,450
2017-03-11T11:01:05.928Z,455
2017-03-11T11:02:05.939Z,465
2017-03-11T11:03:05.996Z,470
2017-03-11T11:04:06.026Z,475
2017-03-11T11:05:06.282Z,465
2017-03-11T11:06:06.078Z,460
2017-03-11T11:07:06.124Z,460
2017-03-11T11:08:06.151Z,465
2017-03-11T11:09:06.190Z,465
2017-03-11T11:10:06.195Z,460
2017-03-11T11:11:06.254Z,475
2017-03-11T11:12:06.265Z,490
2017-03-11T11:13:06.302Z,480
2017-03-11T11:14:06.321Z,485
2017-03-11T11:15:06.382Z,500
2017-03-11T11:16:06.381Z,490
2017-03-11T11:17:06.445Z,480
2017-03-11T11:18:06.457Z,490
2017-03-11T11:19:06.462Z,485
2017-03-11T11:20:06.506Z,495
2017-03-11T11:21:06.555Z,530
2017-03-11T11:22:06.568Z,545
2017-03-11T11:23:06.594Z,575
2017-03-11T11:24:06.666Z,610
2017-03-11T11:25:06.680Z,615
2017-03-11T11:26:06.721Z,605
2017-03-11T11:27:07.165Z,575
2017-03-11T11:28:07.091Z,560
2017-03-11T11:29:06.810Z,550
2017-03-11T11:30:06.827Z,535
2017-03-11T11:31:06.830Z,530
2017-03-11T11:32:07.150Z,535
2017-03-11T11:33:06.913Z,530
2017-03-11T11:34:06.960Z,530
2017-03-11T11:35:07.046Z,535
2017-03-11T11:36:07.002Z,510
2017-03-11T11:37:07.051Z,495
2017-03-11T11:38:07.062Z,490
2017-03-11T11:39:07.167Z,485
2017-03-11T11:40:07.175Z,480
2017-03-11T11:41:07.213Z,485
2017-03-11T11:42:07.213Z,500
2017-03-11T11:43:07.268Z,515
2017-03-11T11:44:07.260Z,515
2017-03-11T11:45:07.314Z,500
2017-03-11T11:46:07.308Z,490
2017-03-11T11:47:07.351Z,470
2017-03-11T11:48:07.376Z,465
2017-03-11T11:49:07.481Z,460
2017-03-11T11:50:07.445Z,460
2017-03-11T11:51:07.474Z,455
2017-03-11T11:52:07.512Z,455
2017-03-11T11:53:07.576Z,455
2017-03-11T11:54:07.575Z,455
2017-03-11T11:55:07.582Z,460
2017-03-11T11:56:07.652Z,470
2017-03-11T11:57:07.721Z,470
2017-03-11T11:58:07.750Z,495
2017-03-11T11:59:07.737Z,500
2017-03-11T12:00:07.773Z,520
2017-03-11T12:01:07.819Z,525
2017-03-11T12:02:07.840Z,535
2017-03-11T12:03:07.862Z,550
2017-03-11T12:04:07.914Z,565
2017-03-11T12:05:08.046Z,555
2017-03-11T12:06:08.376Z,525
2017-03-11T12:07:08.019Z,525
2017-03-11T12:08:08.067Z,525
2017-03-11T12:09:08.197Z,530
2017-03-11T12:10:08.071Z,520
2017-03-11T12:11:08.279Z,495
2017-03-11T12:12:08.521Z,475
2017-03-11T12:13:08.542Z,465
2017-03-11T12:14:08.230Z,460
2017-03-11T12:15:08.291Z,460
2017-03-11T12:16:08.274Z,450
2017-03-11T12:17:08.324Z,430
2017-03-11T12:18:08.336Z,410
2017-03-11T12:19:08.399Z,430
2017-03-11T12:20:08.514Z,420
2017-03-11T12:21:08.452Z,405
2017-03-11T12:22:08.538Z,385
2017-03-11T12:23:08.519Z,370
2017-03-11T12:24:08.537Z,365
2017-03-11T12:25:08.715Z,350
2017-03-11T12:26:08.677Z,345
2017-03-11T12:27:08.639Z,355
2017-03-11T12:28:08.646Z,360
2017-03-11T12:29:08.697Z,355
2017-03-11T12:30:08.720Z,365
2017-03-11T12:31:08.791Z,405
2017-03-11T12:32:08.789Z,440
2017-03-11T12:33:09.038Z,450
2017-03-11T12:34:08.850Z,435
2017-03-11T12:35:08.936Z,435
2017-03-11T12:36:08.916Z,435
2017-03-11T12:37:08.992Z,435
2017-03-11T12:38:08.967Z,435
2017-03-11T12:39:09.042Z,440
2017-03-11T12:40:09.094Z,440
2017-03-11T12:41:09.124Z,415
2017-03-11T12:42:09.085Z,405
2017-03-11T12:43:09.166Z,390
2017-03-11T12:44:09.192Z,355
2017-03-11T12:45:09.229Z,350
2017-03-11T12:46:09.235Z,360
2017-03-11T12:47:09.269Z,360
2017-03-11T12:48:09.305Z,345
2017-03-11T12:49:09.336Z,330
2017-03-11T12:50:09.382Z,320
2017-03-11T12:51:09.402Z,330
2017-03-11T12:52:09.444Z,335
2017-03-11T12:53:09.460Z,345
2017-03-11T12:54:09.491Z,345
2017-03-11T12:55:09.589Z,340
2017-03-11T12:56:09.541Z,330
2017-03-11T12:57:09.623Z,315
2017-03-11T12:58:09.636Z,315
2017-03-11T12:59:09.676Z,320
2017-03-11T13:00:09.845Z,325
2017-03-11T13:01:09.757Z,330
2017-03-11T13:02:09.734Z,330
2017-03-11T13:03:09.784Z,305
2017-03-11T13:04:09.827Z,305
2017-03-11T13:05:09.836Z,295
2017-03-11T13:06:09.935Z,290
2017-03-11T13:07:09.916Z,290
2017-03-11T13:08:09.941Z,295
2017-03-11T13:09:09.988Z,305
2017-03-11T13:10:09.996Z,310
2017-03-11T13:11:10.040Z,315
2017-03-11T13:12:10.056Z,325
2017-03-11T13:13:10.101Z,315
2017-03-11T13:14:10.113Z,315
2017-03-11T13:15:10.172Z,310
2017-03-11T13:16:10.194Z,300
2017-03-11T13:17:10.216Z,290
2017-03-11T13:18:10.263Z,280
2017-03-11T13:19:10.303Z,275
2017-03-11T13:20:10.315Z,270
2017-03-11T13:21:10.377Z,260
2017-03-11T13:22:10.381Z,240
2017-03-11T13:23:10.425Z,215
2017-03-11T13:24:10.461Z,200
2017-03-11T13:25:10.548Z,190
2017-03-11T13:26:10.540Z,190
2017-03-11T13:27:10.546Z,185
2017-03-11T13:28:10.565Z,190
2017-03-11T13:29:10.601Z,195
2017-03-11T13:30:10.624Z,200
2017-03-11T13:31:10.665Z,205
2017-03-11T13:32:10.702Z,195
2017-03-11T13:33:10.727Z,195
2017-03-11T13:34:10.748Z,195
2017-03-11T13:35:11.078Z,190
2017-03-11T13:36:10.817Z,185
2017-03-11T13:37:10.851Z,175
2017-03-11T13:38:10.871Z,160
2017-03-11T13:39:10.946Z,175
2017-03-11T13:40:11.293Z,175
2017-03-11T13:41:11.004Z,180
2017-03-11T13:42:10.989Z,190
2017-03-11T13:43:11.045Z,205
2017-03-11T13:44:11.089Z,225
2017-03-11T13:45:11.252Z,240
2017-03-11T13:46:11.101Z,250
2017-03-11T13:47:11.210Z,255
2017-03-11T13:48:11.241Z,255
2017-03-11T13:49:11.196Z,255
2017-03-11T13:50:11.422Z,245
2017-03-11T13:51:11.309Z,255
2017-03-11T13:52:11.304Z,270
2017-03-11T13:53:11.357Z,305
2017-03-11T13:54:11.380Z,310
2017-03-11T13:55:11.379Z,305
2017-03-11T13:56:11.461Z,290
2017-03-11T13:57:11.506Z,270
2017-03-11T13:58:11.514Z,240
2017-03-11T13:59:11.521Z,215
2017-03-11T14:00:11.536Z,190
2017-03-11T14:01:11.602Z,180
2017-03-11T14:02:11.634Z,170
2017-03-11T14:03:11.661Z,165
2017-03-11T14:04:11.673Z,170
2017-03-11T14:05:11.712Z,170
2017-03-11T14:06:11.740Z,165
2017-03-11T14:07:11.764Z,160
2017-03-11T14:08:11.804Z,165
2017-03-11T14:09:11.866Z,165
2017-03-11T14:10:11.866Z,175
2017-03-11T14:11:11.903Z,175
2017-03-11T14:12:11.909Z,190